createdAt,value
2019-04-07T00:01:20.685Z,32.78
2019-04-07T00:03:50.348Z,34.10
2019-04-07T00:06:19.455Z,37.10
2019-04-07T00:08:48.643Z,35.85
2019-04-07T00:11:17.841Z,29.37
2019-04-07T00:13:48.134Z,32.40
2019-04-07T00:16:17.158Z,34.65
2019-04-07T00:18:46.974Z,33.02
2019-04-07T00:21:16.778Z,29.27
2019-04-07T00:23:45.873Z,30.08
2019-04-07T00:26:15.177Z,32.73
2019-04-07T00:28:44.274Z,34.92
2019-04-07T00:31:13.422Z,29.57
2019-04-07T00:33:42.692Z,31.73
2019-04-07T00:36:11.762Z,38.33
2019-04-07T00:38:40.853Z,29.20
2019-04-07T00:41:09.947Z,27.70
2019-04-07T00:43:39.534Z,28.25
2019-04-07T00:46:08.846Z,36.88
2019-04-07T00:48:37.845Z,23.60
2019-04-07T00:51:06.942Z,31.35
2019-04-07T00:53:36.550Z,28.15
2019-04-07T00:56:05.948Z,26.65
2019-04-07T00:58:35.046Z,23.38
2019-04-07T01:01:05.284Z,27.50
2019-04-07T01:03:34.873Z,23.50
2019-04-07T01:06:04.172Z,31.60
2019-04-07T01:08:33.539Z,24.65
2019-04-07T01:11:22.022Z,25.60
2019-04-07T01:13:51.640Z,23.55
2019-04-07T01:16:20.830Z,23.55
2019-04-07T01:18:50.199Z,32.20
2019-04-07T01:21:19.425Z,23.83
2019-04-07T01:23:49.030Z,24.47
2019-04-07T01:26:18.543Z,26.90
2019-04-07T01:28:48.234Z,24.95
2019-04-07T01:31:17.664Z,26.90
2019-04-07T01:33:46.951Z,24.12
2019-04-07T01:36:16.115Z,22.50
2019-04-07T01:38:46.027Z,28.23
2019-04-07T01:41:22.859Z,30.17
2019-04-07T01:43:53.734Z,25.17
2019-04-07T01:46:27.370Z,27.05
2019-04-07T01:49:03.837Z,24.63
2019-04-07T01:51:51.805Z,24.23
2019-04-07T01:54:31.803Z,26.95
2019-04-07T01:57:05.756Z,24.72
2019-04-07T01:59:55.637Z,24.55
2019-04-07T02:02:26.404Z,32.38
2019-04-07T02:05:13.570Z,21.40
2019-04-07T02:07:53.894Z,31.85
2019-04-07T02:10:34.088Z,27.60
2019-04-07T02:13:05.228Z,21.27
2019-04-07T02:15:37.181Z,30.50
2019-04-07T02:18:13.859Z,28.32
2019-04-07T02:20:59.250Z,28.50
2019-04-07T02:23:33.883Z,30.40
2019-04-07T02:26:20.262Z,33.58
2019-04-07T02:29:03.850Z,24.80
2019-04-07T02:31:38.734Z,19.30
2019-04-07T02:34:09.247Z,16.20
2019-04-07T02:36:40.725Z,20.70
2019-04-07T02:39:11.751Z,27.13
2019-04-07T02:41:58.271Z,20.55
2019-04-07T02:44:33.438Z,22.85
2019-04-07T02:47:04.238Z,14.85
2019-04-07T02:49:35.508Z,17.00
2019-04-07T02:52:09.118Z,29.12
2019-04-07T02:54:55.264Z,21.23
2019-04-07T02:57:29.084Z,21.97
2019-04-07T03:00:16.594Z,21.30
2019-04-07T03:02:50.155Z,26.33
2019-04-07T03:05:24.095Z,21.45
2019-04-07T03:07:54.950Z,26.73
2019-04-07T03:10:40.823Z,23.77
2019-04-07T03:13:12.660Z,21.35
2019-04-07T03:15:56.627Z,35.00
2019-04-07T03:18:34.317Z,21.05
2019-04-07T03:21:22.602Z,27.60
2019-04-07T03:24:19.363Z,28.62
2019-04-07T03:26:53.521Z,33.10
2019-04-07T03:29:42.588Z,28.92
2019-04-07T03:32:17.043Z,26.05
2019-04-07T03:35:03.111Z,28.12
2019-04-07T03:37:42.225Z,24.92
2019-04-07T03:40:08.664Z,30.17
2019-04-07T03:42:53.948Z,27.50
2019-04-07T03:45:30.817Z,22.73
2019-04-07T03:48:02.157Z,20.37
2019-04-07T03:50:33.348Z,38.55
2019-04-07T03:53:10.245Z,21.73
2019-04-07T03:55:40.943Z,28.05
2019-04-07T03:58:12.287Z,25.43
2019-04-07T04:01:10.197Z,27.02
2019-04-07T04:03:41.150Z,23.18
2019-04-07T04:06:28.197Z,23.18
2019-04-07T04:09:02.604Z,27.37
2019-04-07T04:11:40.641Z,19.67
2019-04-07T04:14:13.278Z,23.98
2019-04-07T04:16:45.695Z,17.02
2019-04-07T04:19:14.857Z,17.62
2019-04-07T04:21:44.497Z,23.70
2019-04-07T04:24:14.275Z,21.23
2019-04-07T04:26:44.394Z,20.27
2019-04-07T04:29:13.489Z,17.67
2019-04-07T04:31:43.390Z,26.07
2019-04-07T04:34:12.500Z,24.65
2019-04-07T04:36:41.593Z,18.98
2019-04-07T04:39:10.688Z,21.40
2019-04-07T04:41:40.510Z,16.80
2019-04-07T04:44:10.174Z,16.17
2019-04-07T04:46:39.405Z,18.10
2019-04-07T04:49:08.678Z,19.05
2019-04-07T04:51:39.394Z,18.20
2019-04-07T04:54:09.148Z,21.07
2019-04-07T04:56:38.248Z,27.80
2019-04-07T04:59:07.507Z,18.02
2019-04-07T05:01:37.768Z,16.42
2019-04-07T05:04:07.486Z,18.42
2019-04-07T05:06:36.885Z,13.25
2019-04-07T05:09:08.993Z,18.35
2019-04-07T05:11:38.594Z,16.37
2019-04-07T05:14:08.840Z,20.70
2019-04-07T05:16:38.762Z,16.45
2019-04-07T05:19:08.768Z,13.75
2019-04-07T05:21:38.112Z,21.42
2019-04-07T05:24:07.306Z,20.57
2019-04-07T05:26:36.552Z,14.63
2019-04-07T05:29:06.004Z,16.97
2019-04-07T05:31:35.926Z,23.27
2019-04-07T05:34:05.397Z,15.65
2019-04-07T05:36:34.613Z,17.57
2019-04-07T05:39:05.329Z,21.65
2019-04-07T05:41:34.967Z,20.48
2019-04-07T05:44:04.409Z,19.32
2019-04-07T05:46:38.634Z,24.37
2019-04-07T05:49:05.370Z,17.42
2019-04-07T05:51:34.919Z,18.65
2019-04-07T05:54:05.594Z,23.32
2019-04-07T05:56:35.816Z,23.20
2019-04-07T05:59:09.913Z,18.60
2019-04-07T06:01:39.155Z,13.20
2019-04-07T06:04:08.893Z,12.30
2019-04-07T06:06:41.456Z,11.33
2019-04-07T06:09:09.487Z,15.93
2019-04-07T06:11:40.436Z,21.75
2019-04-07T06:16:57.865Z,19.85
2019-04-07T06:19:27.567Z,13.68
2019-04-07T06:21:57.947Z,14.28
2019-04-07T06:24:31.484Z,19.00
2019-04-07T06:26:58.853Z,18.50
2019-04-07T06:29:28.971Z,15.70
2019-04-07T06:32:02.437Z,15.75
2019-04-07T06:34:31.537Z,14.03
2019-04-07T06:37:01.253Z,12.85
2019-04-07T06:39:32.248Z,14.65
2019-04-07T06:42:03.404Z,13.28
2019-04-07T06:44:33.625Z,19.00
2019-04-07T06:47:20.305Z,15.40
2019-04-07T06:49:51.891Z,17.25
2019-04-07T06:52:28.581Z,12.98
2019-04-07T06:55:00.181Z,15.15
2019-04-07T06:57:37.717Z,27.60
2019-04-07T07:00:26.565Z,26.25
2019-04-07T07:03:12.851Z,15.30
2019-04-07T07:05:46.063Z,14.93
2019-04-07T07:08:21.613Z,15.30
2019-04-07T07:11:09.485Z,15.75
2019-04-07T07:13:57.746Z,13.10
2019-04-07T07:16:42.611Z,16.57
2019-04-07T07:19:14.154Z,18.60
2019-04-07T07:21:54.859Z,8.78
2019-04-07T07:24:25.688Z,11.45
2019-04-07T07:26:57.726Z,12.65
2019-04-07T07:29:26.988Z,16.87
2019-04-07T07:32:02.516Z,14.50
2019-04-07T07:34:27.502Z,15.58
2019-04-07T07:36:58.727Z,12.37
2019-04-07T07:39:28.460Z,11.48
2019-04-07T07:41:59.325Z,16.30
2019-04-07T07:44:31.247Z,13.50
2019-04-07T07:47:00.474Z,13.60
2019-04-07T07:49:33.518Z,14.18
2019-04-07T07:52:01.377Z,16.80
2019-04-07T07:54:31.625Z,12.58
2019-04-07T07:57:02.418Z,14.03
2019-04-07T07:59:37.662Z,16.55
2019-04-07T08:02:03.439Z,14.98
2019-04-07T08:04:33.380Z,14.50
2019-04-07T08:07:03.042Z,22.05
2019-04-07T08:09:33.946Z,15.95
2019-04-07T08:12:03.569Z,16.10
2019-04-07T08:14:33.507Z,15.10
2019-04-07T08:17:03.626Z,15.08
2019-04-07T08:19:35.004Z,16.02
2019-04-07T08:22:06.451Z,13.08
2019-04-07T08:24:36.161Z,17.92
2019-04-07T08:27:06.380Z,11.95
2019-04-07T08:29:37.557Z,14.80
2019-04-07T08:32:07.706Z,16.93
2019-04-07T08:34:37.633Z,13.83
2019-04-07T08:37:07.333Z,17.62
2019-04-07T08:39:37.517Z,10.50
2019-04-07T08:42:10.740Z,9.60
2019-04-07T08:44:37.793Z,11.43
2019-04-07T08:47:11.407Z,14.93
2019-04-07T08:49:40.371Z,10.40
2019-04-07T08:52:11.476Z,14.73
2019-04-07T08:54:40.910Z,19.30
2019-04-07T08:57:10.701Z,17.80
2019-04-07T08:59:43.024Z,26.33
2019-04-07T09:02:13.653Z,19.12
2019-04-07T09:04:47.278Z,17.30
2019-04-07T09:07:15.479Z,13.85
2019-04-07T09:09:47.563Z,13.55
2019-04-07T09:12:17.477Z,16.77
2019-04-07T09:14:47.179Z,22.07
2019-04-07T09:17:32.193Z,13.70
2019-04-07T09:19:58.260Z,17.07
2019-04-07T09:22:34.621Z,12.95
2019-04-07T09:25:23.908Z,15.50
2019-04-07T09:28:03.221Z,16.37
2019-04-07T09:30:47.152Z,16.87
2019-04-07T09:33:36.946Z,17.65
2019-04-07T09:36:09.027Z,18.32
2019-04-07T09:38:39.899Z,17.45
2019-04-07T09:41:17.190Z,17.05
2019-04-07T09:44:03.991Z,13.35
2019-04-07T09:46:35.446Z,12.13
2019-04-07T09:49:10.019Z,14.18
2019-04-07T09:51:45.264Z,19.67
2019-04-07T09:54:22.184Z,20.48
2019-04-07T09:57:06.031Z,17.42
2019-04-07T09:59:52.132Z,10.82
2019-04-07T10:02:33.564Z,17.27
2019-04-07T10:05:11.365Z,17.20
2019-04-07T10:07:44.013Z,18.87
2019-04-07T10:10:31.707Z,18.52
2019-04-07T10:13:06.606Z,16.52
2019-04-07T10:15:45.252Z,16.67
2019-04-07T10:18:25.204Z,15.98
2019-04-07T10:21:12.117Z,20.65
2019-04-07T10:24:00.734Z,16.25
2019-04-07T10:26:44.060Z,19.12
2019-04-07T10:29:32.962Z,19.98
2019-04-07T10:32:07.821Z,19.67
2019-04-07T10:35:04.014Z,14.90
2019-04-07T10:37:36.096Z,14.38
2019-04-07T10:40:26.425Z,14.98
2019-04-07T10:43:07.414Z,16.70
2019-04-07T10:45:39.348Z,18.30
2019-04-07T10:48:13.469Z,15.03
2019-04-07T10:50:54.290Z,18.27
2019-04-07T10:53:42.019Z,14.18
2019-04-07T10:56:18.803Z,15.80
2019-04-07T10:58:59.346Z,19.90
2019-04-07T11:01:46.125Z,17.67
2019-04-07T11:04:20.182Z,16.15
2019-04-07T11:06:51.754Z,12.00
2019-04-07T11:09:23.569Z,14.78
2019-04-07T11:12:07.384Z,18.27
2019-04-07T11:14:57.987Z,16.23
2019-04-07T11:17:43.587Z,19.30
2019-04-07T11:20:14.929Z,15.83
2019-04-07T11:25:35.878Z,10.10
2019-04-07T11:28:22.703Z,20.00
2019-04-07T11:30:56.333Z,15.98
2019-04-07T11:33:36.219Z,23.00
2019-04-07T11:36:21.568Z,13.75
2019-04-07T11:38:54.850Z,17.75
2019-04-07T11:41:28.870Z,10.75
2019-04-07T11:44:21.672Z,15.48
2019-04-07T11:46:53.352Z,18.25
2019-04-07T11:49:25.100Z,15.95
2019-04-07T11:52:09.072Z,15.05
2019-04-07T11:54:40.169Z,11.95
2019-04-07T11:57:22.984Z,10.60
2019-04-07T11:59:54.369Z,15.88
2019-04-07T12:02:39.016Z,12.85
2019-04-07T12:05:20.152Z,13.88
2019-04-07T12:08:07.246Z,13.58
2019-04-07T12:10:56.352Z,17.30
2019-04-07T12:13:24.055Z,14.63
2019-04-07T12:16:11.432Z,19.20
2019-04-07T12:19:00.189Z,19.62
2019-04-07T12:21:35.447Z,16.02
2019-04-07T12:24:14.562Z,16.60
2019-04-07T12:27:01.740Z,13.55
2019-04-07T12:29:33.155Z,17.98
2019-04-07T12:32:15.912Z,13.93
2019-04-07T12:34:49.756Z,21.68
2019-04-07T12:37:26.222Z,13.32
2019-04-07T12:40:06.467Z,13.93
2019-04-07T12:42:50.286Z,15.45
2019-04-07T12:45:20.844Z,13.43
2019-04-07T12:47:58.312Z,10.45
2019-04-07T12:50:35.602Z,17.90
2019-04-07T12:53:09.743Z,16.87
2019-04-07T12:55:53.240Z,17.40
2019-04-07T12:58:30.158Z,17.57
2019-04-07T13:01:14.001Z,18.02
2019-04-07T13:03:45.111Z,11.10
2019-04-07T13:06:33.240Z,13.58
2019-04-07T13:09:16.156Z,12.88
2019-04-07T13:11:49.721Z,18.55
2019-04-07T13:14:25.701Z,12.13
2019-04-07T13:17:05.351Z,13.78
2019-04-07T13:19:36.218Z,8.13
2019-04-07T13:22:13.000Z,17.52
2019-04-07T13:24:58.969Z,16.87
2019-04-07T13:27:45.487Z,13.95
2019-04-07T13:30:23.509Z,13.85
2019-04-07T13:32:57.513Z,11.38
2019-04-07T13:35:32.028Z,13.03
2019-04-07T13:38:02.668Z,9.53
2019-04-07T13:40:33.725Z,11.65
2019-04-07T13:43:14.530Z,15.38
2019-04-07T13:45:55.719Z,14.95
2019-04-07T13:48:41.835Z,17.10
2019-04-07T13:51:12.966Z,12.60
2019-04-07T13:54:00.700Z,14.10
2019-04-07T13:56:34.308Z,10.30
2019-04-07T13:59:20.404Z,16.85
2019-04-07T14:01:57.076Z,10.65
2019-04-07T14:04:43.448Z,16.25
2019-04-07T14:07:18.144Z,18.27
2019-04-07T14:09:49.753Z,20.43
2019-04-07T14:12:33.805Z,19.32
2019-04-07T14:15:11.465Z,16.27
2019-04-07T14:17:54.733Z,23.73
2019-04-07T14:20:29.252Z,17.80
2019-04-07T14:23:06.287Z,22.10
2019-04-07T14:25:52.614Z,21.85
2019-04-07T14:28:40.125Z,18.50
2019-04-07T14:31:17.488Z,15.35
2019-04-07T14:33:57.477Z,13.03
2019-04-07T14:36:35.099Z,17.30
2019-04-07T14:39:26.024Z,19.55
2019-04-07T14:42:06.724Z,20.12
2019-04-07T14:44:36.933Z,20.00
2019-04-07T14:47:20.312Z,12.85
2019-04-07T14:50:07.965Z,12.68
2019-04-07T14:52:41.079Z,11.83
2019-04-07T14:55:28.826Z,19.37
2019-04-07T14:58:16.068Z,13.48
2019-04-07T15:03:30.663Z,15.30
2019-04-07T15:06:01.445Z,19.70
2019-04-07T15:08:35.576Z,19.32
2019-04-07T15:11:16.735Z,17.55
2019-04-07T15:13:47.429Z,10.28
2019-04-07T15:16:17.378Z,14.40
2019-04-07T15:18:46.769Z,11.73
2019-04-07T15:21:16.644Z,11.18
2019-04-07T15:23:48.182Z,13.18
2019-04-07T15:26:19.354Z,13.00
2019-04-07T15:28:49.227Z,12.70
2019-04-07T15:31:20.320Z,11.28
2019-04-07T15:33:49.786Z,14.75
2019-04-07T15:36:19.710Z,10.25
2019-04-07T15:38:49.798Z,15.32
2019-04-07T15:41:19.581Z,15.68
2019-04-07T15:43:50.070Z,16.02
2019-04-07T15:46:19.895Z,10.80
2019-04-07T15:48:54.325Z,16.73
2019-04-07T15:51:21.614Z,16.75
2019-04-07T15:53:52.051Z,13.25
2019-04-07T15:56:21.185Z,20.10
2019-04-07T15:58:50.841Z,12.70
2019-04-07T16:01:21.630Z,14.38
2019-04-07T16:03:53.498Z,9.18
2019-04-07T16:06:21.446Z,12.07
2019-04-07T16:08:51.110Z,14.58
2019-04-07T16:11:23.436Z,14.45
2019-04-07T16:13:51.971Z,14.90
2019-04-07T16:16:22.854Z,15.65
2019-04-07T16:18:52.685Z,17.82
2019-04-07T16:21:22.155Z,12.30
2019-04-07T16:23:53.196Z,15.23
2019-04-07T16:26:21.783Z,17.45
2019-04-07T16:28:50.874Z,14.58
2019-04-07T16:31:23.112Z,16.25
2019-04-07T16:33:50.498Z,13.53
2019-04-07T16:36:19.798Z,16.60
2019-04-07T16:38:48.894Z,15.45
2019-04-07T16:41:17.906Z,26.52
2019-04-07T16:43:47.297Z,11.95
2019-04-07T16:46:20.422Z,21.20
2019-04-07T16:48:47.114Z,16.48
2019-04-07T16:51:16.038Z,15.53
2019-04-07T16:53:45.099Z,12.37
2019-04-07T16:56:14.675Z,15.78
2019-04-07T16:58:44.722Z,16.07
2019-04-07T17:01:14.307Z,10.72
2019-04-07T17:03:44.223Z,12.58
2019-04-07T17:06:13.440Z,14.07
2019-04-07T17:08:42.639Z,15.50
2019-04-07T17:11:12.856Z,8.98
2019-04-07T17:13:43.032Z,12.37
2019-04-07T17:16:13.338Z,23.45
2019-04-07T17:18:43.424Z,19.62
2019-04-07T17:21:15.589Z,18.20
2019-04-07T17:23:45.592Z,12.93
2019-04-07T17:26:14.799Z,17.23
2019-04-07T17:28:46.093Z,14.18
2019-04-07T17:31:14.423Z,13.03
2019-04-07T17:33:43.519Z,13.60
2019-04-07T17:36:17.652Z,18.82
2019-04-07T17:39:03.988Z,11.93
2019-04-07T17:41:32.458Z,13.35
2019-04-07T17:44:17.639Z,11.53
2019-04-07T17:46:50.265Z,13.05
2019-04-07T17:49:36.068Z,11.90
2019-04-07T17:52:09.774Z,11.35
2019-04-07T17:54:50.830Z,13.62
2019-04-07T17:57:26.486Z,16.07
2019-04-07T17:59:58.187Z,15.28
2019-04-07T18:02:53.924Z,19.23
2019-04-07T18:05:34.495Z,17.60
2019-04-07T18:08:21.937Z,20.43
2019-04-07T18:10:58.946Z,15.68
2019-04-07T18:13:39.860Z,13.90
2019-04-07T18:16:15.047Z,15.65
2019-04-07T18:19:02.728Z,14.28
2019-04-07T18:21:50.341Z,20.48
2019-04-07T18:24:23.376Z,19.70
2019-04-07T18:27:12.577Z,12.28
2019-04-07T18:29:42.765Z,19.27
2019-04-07T18:32:16.601Z,17.15
2019-04-07T18:34:47.404Z,15.53
2019-04-07T18:37:36.484Z,16.67
2019-04-07T18:40:14.388Z,16.52
2019-04-07T18:42:51.158Z,14.28
2019-04-07T18:45:38.429Z,13.90
2019-04-07T18:48:28.438Z,20.52
2019-04-07T18:51:14.808Z,15.55
2019-04-07T18:53:48.910Z,15.93
2019-04-07T18:56:22.619Z,14.85
2019-04-07T18:58:53.475Z,14.05
2019-04-07T19:01:30.376Z,13.72
2019-04-07T19:04:01.112Z,10.48
2019-04-07T19:06:46.422Z,13.65
2019-04-07T19:09:23.937Z,18.62
2019-04-07T19:12:14.218Z,12.95
2019-04-07T19:14:51.012Z,12.40
2019-04-07T19:17:21.647Z,16.80
2019-04-07T19:19:52.814Z,18.77
2019-04-07T19:22:26.431Z,9.93
2019-04-07T19:25:14.315Z,12.25
2019-04-07T19:27:45.266Z,12.30
2019-04-07T19:30:16.400Z,19.00
2019-04-07T19:33:04.485Z,17.37
2019-04-07T19:35:44.624Z,12.43
2019-04-07T19:38:25.105Z,26.27
2019-04-07T19:41:14.944Z,13.58
2019-04-07T19:43:45.826Z,11.93
2019-04-07T19:46:16.536Z,18.55
2019-04-07T19:48:50.249Z,11.12
2019-04-07T19:51:29.032Z,20.52
2019-04-07T19:54:02.506Z,14.98
2019-04-07T19:56:36.058Z,6.25
2019-04-07T19:59:24.614Z,13.15
2019-04-07T20:02:04.151Z,19.37
2019-04-07T20:04:50.813Z,11.20
2019-04-07T20:07:18.957Z,12.90
2019-04-07T20:09:54.971Z,20.57
2019-04-07T20:12:42.663Z,13.20
2019-04-07T20:15:25.254Z,21.15
2019-04-07T20:17:56.503Z,16.40
2019-04-07T20:20:28.002Z,21.73
2019-04-07T20:22:58.924Z,19.85
2019-04-07T20:25:31.099Z,16.12
2019-04-07T20:28:17.851Z,13.05
2019-04-07T20:30:54.307Z,11.73
2019-04-07T20:33:25.006Z,18.32
2019-04-07T20:36:19.353Z,10.58
2019-04-07T20:38:46.983Z,13.25
2019-04-07T20:41:29.475Z,6.05
2019-04-07T20:44:15.243Z,10.95
2019-04-07T20:47:02.198Z,17.50
2019-04-07T20:49:50.372Z,16.00
2019-04-07T20:52:38.350Z,15.05
2019-04-07T20:55:09.883Z,16.45
2019-04-07T20:57:40.759Z,13.72
2019-04-07T21:00:28.523Z,14.58
2019-04-07T21:03:18.233Z,18.80
2019-04-07T21:05:44.317Z,19.62
2019-04-07T21:08:15.238Z,16.05
2019-04-07T21:10:54.772Z,15.68
2019-04-07T21:13:41.943Z,28.02
2019-04-07T21:16:30.001Z,18.60
2019-04-07T21:19:07.697Z,13.75
2019-04-07T21:21:52.581Z,13.30
2019-04-07T21:24:25.084Z,13.93
2019-04-07T21:26:59.254Z,21.07
2019-04-07T21:29:28.093Z,15.63
2019-04-07T21:32:16.852Z,14.70
2019-04-07T21:35:00.782Z,19.10
2019-04-07T21:37:32.576Z,13.95
2019-04-07T21:40:06.300Z,17.35
2019-04-07T21:42:54.082Z,15.05
2019-04-07T21:45:32.672Z,15.58
2019-04-07T21:48:13.703Z,17.92
2019-04-07T21:50:44.835Z,20.55
2019-04-07T21:53:15.935Z,29.12
2019-04-07T21:55:47.631Z,18.37
2019-04-07T21:58:27.480Z,14.43
2019-04-07T22:01:14.564Z,15.43
2019-04-07T22:03:54.586Z,15.43
2019-04-07T22:06:34.257Z,14.20
2019-04-07T22:09:04.983Z,15.80
2019-04-07T22:11:34.653Z,17.82
2019-04-07T22:14:06.870Z,23.07
2019-04-07T22:16:35.301Z,15.68
2019-04-07T22:19:10.141Z,23.15
2019-04-07T22:21:36.193Z,12.30
2019-04-07T22:24:05.698Z,12.40
2019-04-07T22:26:34.980Z,15.15
2019-04-07T22:29:05.439Z,16.82
2019-04-07T22:31:36.777Z,20.08
2019-04-07T22:34:05.762Z,19.67
2019-04-07T22:36:35.661Z,25.85
2019-04-07T22:39:05.793Z,16.00
2019-04-07T22:41:37.011Z,25.37
2019-04-07T22:44:05.933Z,13.50
2019-04-07T22:46:35.126Z,14.40
2019-04-07T22:49:04.222Z,19.80
2019-04-07T22:51:33.906Z,16.42
2019-04-07T22:54:03.032Z,23.10
2019-04-07T22:56:32.228Z,14.80
2019-04-07T22:59:01.586Z,18.65
2019-04-07T23:01:31.333Z,19.15
2019-04-07T23:04:01.480Z,15.05
2019-04-07T23:06:30.755Z,18.27
2019-04-07T23:08:59.848Z,16.35
2019-04-07T23:11:29.910Z,14.35
2019-04-07T23:13:59.267Z,13.43
2019-04-07T23:16:28.256Z,19.45
2019-04-07T23:18:57.253Z,21.70
2019-04-07T23:21:26.788Z,17.00
2019-04-07T23:23:56.054Z,20.75
2019-04-07T23:26:25.151Z,18.77
2019-04-07T23:28:54.448Z,24.00
2019-04-07T23:31:23.749Z,20.32
2019-04-07T23:33:52.847Z,15.28
2019-04-07T23:36:22.757Z,11.95
2019-04-07T23:38:51.853Z,23.18
2019-04-07T23:41:20.748Z,14.60
2019-04-07T23:43:50.500Z,16.55
2019-04-07T23:46:24.710Z,11.55
2019-04-07T23:48:50.689Z,16.30
2019-04-07T23:51:20.588Z,8.50
2019-04-07T23:54:09.366Z,16.23
2019-04-07T23:56:41.350Z,11.10
2019-04-07T23:59:11.402Z,12.53
